Time;durP1;ratioP1;P1;durP2;ratioP2;P2;SDS_P1;SDS_P2;PMS_P1;PMS_P2;Temp;Humidity;BMP_temperature;BMP_pressure;BME280_temperature;BME280_humidity;BME280_pressure;Samples;Min_cycle;Max_cycle;Signal;HPM_P1;HPM_P2
2021/08/18 00:00:43;;;;;;;261.40;247.77;;;14.60;99.90;;;;;;6156712;23;20434;-83
2021/08/18 00:03:11;;;;;;;266.33;252.43;;;14.60;99.90;;;;;;6156573;23;20406;-84
2021/08/18 00:05:38;;;;;;;266.20;252.80;;;14.60;99.90;;;;;;6156599;23;20405;-83
2021/08/18 00:08:11;;;;;;;264.67;250.57;;;14.60;99.90;;;;;;6164777;23;20811;-84
2021/08/18 00:10:38;;;;;;;260.50;246.30;;;14.60;99.90;;;;;;6165870;23;20422;-83
2021/08/18 00:13:13;;;;;;;265.73;251.80;;;14.70;99.90;;;;;;6156494;23;20481;-84
2021/08/18 00:15:41;;;;;;;265.13;251.00;;;14.70;99.90;;;;;;6166059;23;20914;-83
2021/08/18 00:18:08;;;;;;;264.40;250.40;;;14.70;99.90;;;;;;6165944;23;20440;-84
2021/08/18 00:20:37;;;;;;;263.27;248.80;;;14.80;99.90;;;;;;6166163;23;20414;-84
2021/08/18 00:23:07;;;;;;;261.90;248.13;;;14.60;99.90;;;;;;6154924;23;20402;-84
2021/08/18 00:25:36;;;;;;;262.07;247.87;;;14.70;99.90;;;;;;6166262;23;20418;-84
2021/08/18 00:28:03;;;;;;;259.67;246.33;;;14.70;99.90;;;;;;6166104;23;20496;-84
2021/08/18 00:30:30;;;;;;;262.67;249.03;;;14.80;99.90;;;;;;6165670;23;20791;-84
2021/08/18 00:33:07;;;;;;;255.90;242.53;;;14.80;99.90;;;;;;6155997;23;20406;-84
2021/08/18 00:35:37;;;;;;;259.93;246.47;;;14.80;99.90;;;;;;6156144;23;20429;-84
2021/08/18 00:38:07;;;;;;;253.13;239.90;;;14.80;99.90;;;;;;6154461;23;20402;-84
2021/08/18 00:40:39;;;;;;;251.60;238.93;;;14.80;99.90;;;;;;6166017;23;20424;-83
2021/08/18 00:43:08;;;;;;;243.90;231.00;;;14.80;99.90;;;;;;6165859;23;20468;-84
2021/08/18 00:45:35;;;;;;;252.60;239.70;;;14.80;99.90;;;;;;6156124;23;20489;-83
2021/08/18 00:48:02;;;;;;;258.13;244.57;;;14.80;99.90;;;;;;6165874;23;20421;-83
2021/08/18 00:50:29;;;;;;;257.17;244.57;;;14.90;99.90;;;;;;6165848;23;20745;-83
2021/08/18 00:52:58;;;;;;;265.10;251.43;;;14.80;99.90;;;;;;6154415;23;20705;-83
2021/08/18 00:55:28;;;;;;;271.27;256.87;;;14.90;99.90;;;;;;6155653;23;20886;-83
2021/08/18 00:57:57;;;;;;;268.20;254.50;;;14.80;99.90;;;;;;6165496;23;20414;-83
2021/08/18 01:00:27;;;;;;;268.53;254.77;;;14.80;99.90;;;;;;6156037;23;20441;-82
2021/08/18 01:02:56;;;;;;;270.43;256.40;;;14.80;99.90;;;;;;6155915;23;20417;-83
2021/08/18 01:05:27;;;;;;;268.83;254.97;;;14.80;99.90;;;;;;6155982;23;20764;-83
2021/08/18 01:07:56;;;;;;;274.40;260.77;;;14.80;99.90;;;;;;6154287;23;20893;-83
2021/08/18 01:10:25;;;;;;;290.90;276.00;;;14.80;99.90;;;;;;6155912;23;20413;-83
2021/08/18 01:12:53;;;;;;;293.87;278.97;;;14.80;99.90;;;;;;6165912;23;20454;-83
2021/08/18 01:15:25;;;;;;;285.27;270.67;;;14.80;99.90;;;;;;6165412;23;20417;-83
2021/08/18 01:17:55;;;;;;;291.87;277.27;;;14.80;99.90;;;;;;6165648;23;20776;-83
2021/08/18 01:20:24;;;;;;;288.10;272.67;;;14.80;99.90;;;;;;6165215;23;20476;-83
2021/08/18 01:22:51;;;;;;;292.23;276.80;;;14.80;99.90;;;;;;6164419;23;20417;-83
2021/08/18 01:25:26;;;;;;;291.63;277.27;;;14.80;99.90;;;;;;6165743;23;20417;-83
2021/08/18 01:27:57;;;;;;;295.20;279.27;;;14.80;99.90;;;;;;6165468;23;20421;-83
2021/08/18 01:30:27;;;;;;;288.37;272.57;;;14.80;99.90;;;;;;6155885;23;20401;-83
2021/08/18 01:32:56;;;;;;;293.33;278.43;;;14.90;99.90;;;;;;6165326;23;20493;-84
2021/08/18 01:35:27;;;;;;;287.87;273.37;;;14.80;99.90;;;;;;6155986;23;20778;-83
2021/08/18 01:37:55;;;;;;;284.87;270.77;;;14.90;99.90;;;;;;6154598;23;20403;-83
2021/08/18 01:40:28;;;;;;;293.80;278.90;;;14.90;99.90;;;;;;6155584;23;20398;-83
2021/08/18 01:42:55;;;;;;;288.97;274.33;;;14.90;99.90;;;;;;6156207;23;20939;-83
2021/08/18 01:45:27;;;;;;;289.07;273.77;;;14.90;99.90;;;;;;6157899;23;20394;-83
2021/08/18 01:47:56;;;;;;;285.83;271.13;;;14.90;99.90;;;;;;6157929;23;20426;-83
2021/08/18 01:50:24;;;;;;;293.07;278.27;;;14.90;99.90;;;;;;6167231;23;20417;-83
2021/08/18 01:52:57;;;;;;;286.07;270.90;;;15.00;99.90;;;;;;6155799;23;20465;-84
2021/08/18 01:55:25;;;;;;;290.37;275.40;;;14.90;99.90;;;;;;6167656;23;20940;-83
2021/08/18 01:57:54;;;;;;;300.00;283.87;;;14.90;99.90;;;;;;6167316;23;20406;-83
2021/08/18 02:00:23;;;;;;;293.20;277.53;;;14.90;99.90;;;;;;6157721;23;20402;-84
2021/08/18 02:02:53;;;;;;;293.03;277.20;;;14.80;99.90;;;;;;6167155;23;20893;-83
2021/08/18 02:05:22;;;;;;;302.10;286.03;;;14.90;99.90;;;;;;6167156;23;20410;-83
2021/08/18 02:07:49;;;;;;;290.87;275.70;;;14.90;99.90;;;;;;6166184;23;20453;-84
2021/08/18 02:10:18;;;;;;;294.60;278.60;;;14.80;99.90;;;;;;6157694;23;20463;-84
2021/08/18 02:12:45;;;;;;;289.13;274.03;;;14.90;99.90;;;;;;6157194;23;20433;-83
2021/08/18 02:15:14;;;;;;;284.20;269.97;;;14.80;99.90;;;;;;6157630;23;20724;-82
2021/08/18 02:17:41;;;;;;;285.77;271.37;;;15.00;99.90;;;;;;6157404;23;20437;-83
2021/08/18 02:20:13;;;;;;;292.87;278.40;;;14.90;99.90;;;;;;6167417;23;20409;-83
2021/08/18 02:22:40;;;;;;;297.10;281.83;;;14.90;99.90;;;;;;6155716;23;20442;-84
2021/08/18 02:25:08;;;;;;;287.13;272.57;;;14.90;99.90;;;;;;6157468;23;20405;-83
2021/08/18 02:27:35;;;;;;;285.70;270.97;;;14.90;99.90;;;;;;6157525;23;20406;-83
2021/08/18 02:30:02;;;;;;;289.93;274.83;;;14.90;99.90;;;;;;6167359;23;20410;-83
2021/08/18 02:32:33;;;;;;;280.17;265.70;;;14.90;99.90;;;;;;6167128;23;20549;-83
2021/08/18 02:35:00;;;;;;;284.40;269.20;;;14.90;99.90;;;;;;6167025;23;20416;-83
2021/08/18 02:37:29;;;;;;;278.20;263.87;;;15.00;99.90;;;;;;6165634;23;20410;-83
2021/08/18 02:39:56;;;;;;;283.23;269.03;;;14.90;99.90;;;;;;6157421;23;20461;-83
2021/08/18 02:42:23;;;;;;;288.33;273.20;;;15.00;99.90;;;;;;6166871;23;20504;-84
2021/08/18 02:44:50;;;;;;;282.57;267.57;;;15.00;99.90;;;;;;6167231;23;20410;-81
2021/08/18 02:47:17;;;;;;;282.00;267.60;;;14.90;99.90;;;;;;6157419;23;20492;-82
2021/08/18 02:49:44;;;;;;;275.83;261.10;;;15.00;99.90;;;;;;6157335;23;20465;-83
2021/08/18 02:52:11;;;;;;;275.90;261.70;;;15.00;99.90;;;;;;6156851;23;20444;-83
2021/08/18 02:54:39;;;;;;;280.27;266.17;;;15.00;99.90;;;;;;6155652;23;20402;-83
2021/08/18 02:57:09;;;;;;;278.37;263.93;;;14.90;99.90;;;;;;6157259;23;20409;-83
2021/08/18 02:59:38;;;;;;;284.10;269.27;;;15.00;99.90;;;;;;6166597;23;20789;-83
2021/08/18 03:02:05;;;;;;;277.03;262.50;;;15.00;99.90;;;;;;6156844;23;20882;-83
2021/08/18 03:04:32;;;;;;;275.03;260.07;;;14.90;99.90;;;;;;6156794;23;20442;-79
2021/08/18 03:06:59;;;;;;;266.37;252.47;;;14.90;99.90;;;;;;6157113;23;20416;-83
2021/08/18 03:09:26;;;;;;;264.03;250.60;;;14.90;99.90;;;;;;6165432;23;20402;-78
2021/08/18 03:11:54;;;;;;;259.37;246.27;;;14.90;99.90;;;;;;6156608;23;20469;-84
2021/08/18 03:14:22;;;;;;;263.40;250.13;;;14.90;99.90;;;;;;6156838;23;20461;-84
2021/08/18 03:16:49;;;;;;;262.47;248.87;;;14.90;99.90;;;;;;6166617;23;20438;-84
2021/08/18 03:19:16;;;;;;;256.57;243.40;;;14.80;99.90;;;;;;6166936;23;20402;-84
2021/08/18 03:21:43;;;;;;;252.07;238.77;;;14.90;99.90;;;;;;6156570;23;20528;-83
2021/08/18 03:24:11;;;;;;;253.00;239.67;;;14.80;99.90;;;;;;6155746;23;20430;-81
2021/08/18 03:26:38;;;;;;;243.93;231.60;;;14.80;99.90;;;;;;6156510;23;20398;-84
2021/08/18 03:29:09;;;;;;;247.33;234.83;;;14.80;99.90;;;;;;6166765;23;20405;-86
2021/08/18 03:31:36;;;;;;;250.77;237.57;;;14.80;99.90;;;;;;6166318;23;20955;-84
2021/08/18 03:34:07;;;;;;;253.40;240.70;;;14.80;99.90;;;;;;6166559;23;20497;-85
2021/08/18 03:36:33;;;;;;;246.27;233.90;;;14.80;99.90;;;;;;6156938;23;20394;-84
2021/08/18 03:39:00;;;;;;;252.90;240.40;;;14.80;99.90;;;;;;6155611;23;20437;-83
2021/08/18 03:41:27;;;;;;;250.57;237.30;;;14.90;99.90;;;;;;6156273;23;20402;-85
2021/08/18 03:43:54;;;;;;;250.27;236.90;;;14.80;99.90;;;;;;6166353;23;20778;-84
2021/08/18 03:46:22;;;;;;;245.47;232.67;;;14.90;99.90;;;;;;6166659;23;20437;-84
2021/08/18 03:48:49;;;;;;;249.20;236.90;;;14.80;99.90;;;;;;6166264;23;20505;-84
2021/08/18 03:51:16;;;;;;;254.30;241.50;;;14.90;99.90;;;;;;6156691;23;20480;-83
2021/08/18 03:53:43;;;;;;;243.23;230.33;;;14.90;99.90;;;;;;6155165;23;20438;-84
2021/08/18 03:56:10;;;;;;;249.37;235.67;;;14.90;99.90;;;;;;6156692;23;20426;-84
2021/08/18 03:58:37;;;;;;;251.07;238.40;;;14.90;99.90;;;;;;6156698;23;20410;-85
2021/08/18 04:01:03;;;;;;;249.63;236.43;;;14.90;99.90;;;;;;6156247;23;20493;-84
2021/08/18 04:03:32;;;;;;;258.27;244.30;;;14.90;99.90;;;;;;6156583;23;20429;-86
2021/08/18 04:05:59;;;;;;;254.60;241.10;;;14.90;99.90;;;;;;6166098;23;20402;-86
2021/08/18 04:08:26;;;;;;;257.27;243.47;;;14.90;99.90;;;;;;6165072;23;20497;-85
2021/08/18 04:10:53;;;;;;;248.63;234.80;;;14.90;99.90;;;;;;6156663;23;20436;-84
2021/08/18 04:13:20;;;;;;;239.97;226.77;;;15.00;99.90;;;;;;6156474;23;20449;-83
2021/08/18 04:15:47;;;;;;;239.53;226.27;;;15.00;99.90;;;;;;6156195;23;20402;-87
2021/08/18 04:18:14;;;;;;;235.27;221.60;;;15.00;99.90;;;;;;6156209;23;20743;-83
2021/08/18 04:20:42;;;;;;;248.03;233.97;;;14.90;99.90;;;;;;6156278;23;20771;-83
2021/08/18 04:23:09;;;;;;;237.93;223.87;;;15.00;99.90;;;;;;6154569;23;20398;-85
2021/08/18 04:25:37;;;;;;;234.87;221.47;;;15.00;99.90;;;;;;6156079;23;20485;-82
2021/08/18 04:28:04;;;;;;;241.50;227.50;;;15.10;99.90;;;;;;6156420;23;20468;-84
2021/08/18 04:30:31;;;;;;;236.63;223.23;;;15.00;99.90;;;;;;6156440;23;20713;-81
2021/08/18 04:32:58;;;;;;;226.50;212.97;;;15.00;99.90;;;;;;6156377;23;20448;-79
2021/08/18 04:35:25;;;;;;;234.60;220.60;;;15.10;99.90;;;;;;6155889;23;20440;-78
2021/08/18 04:37:53;;;;;;;237.80;224.10;;;15.10;99.90;;;;;;6164682;23;20489;-86
2021/08/18 04:40:22;;;;;;;250.97;236.57;;;15.20;99.90;;;;;;6165768;23;20413;-84
2021/08/18 04:42:50;;;;;;;245.67;231.17;;;15.20;99.90;;;;;;6166004;23;20449;-83
2021/08/18 04:45:18;;;;;;;228.57;215.43;;;15.30;99.90;;;;;;6165985;23;20424;-84
2021/08/18 04:47:47;;;;;;;237.03;223.57;;;15.30;99.90;;;;;;6156207;23;20402;-84
2021/08/18 04:50:15;;;;;;;230.30;217.10;;;15.30;99.90;;;;;;6156007;23;20402;-84
2021/08/18 04:52:42;;;;;;;234.10;220.20;;;15.20;99.90;;;;;;6164787;23;20457;-84
2021/08/18 04:55:13;;;;;;;233.90;220.00;;;15.30;99.90;;;;;;6156196;23;20461;-82
2021/08/18 04:57:41;;;;;;;230.43;216.87;;;15.30;99.90;;;;;;6155713;23;20402;-84
2021/08/18 05:00:10;;;;;;;228.33;215.60;;;15.30;99.90;;;;;;6156084;23;20402;-83
2021/08/18 05:02:37;;;;;;;233.70;220.00;;;15.30;99.90;;;;;;6156006;23;20485;-78
2021/08/18 05:05:05;;;;;;;229.77;216.30;;;15.30;99.90;;;;;;6156041;23;20433;-81
2021/08/18 05:07:32;;;;;;;226.13;212.60;;;15.30;99.90;;;;;;6164031;23;20796;-81
2021/08/18 05:09:59;;;;;;;221.70;208.00;;;15.30;99.90;;;;;;6156004;23;20493;-77
2021/08/18 05:12:27;;;;;;;220.10;207.00;;;15.40;99.90;;;;;;6155771;23;20434;-82
2021/08/18 05:14:55;;;;;;;215.33;202.47;;;15.40;99.90;;;;;;6155992;23;20402;-78
2021/08/18 05:17:30;;;;;;;211.70;198.77;;;15.40;99.90;;;;;;6156080;23;20434;-85
2021/08/18 05:19:57;;;;;;;209.87;196.57;;;15.50;99.90;;;;;;6155949;23;20442;-78
2021/08/18 05:22:24;;;;;;;203.90;191.60;;;15.50;99.90;;;;;;6164252;23;20471;-82
2021/08/18 05:24:51;;;;;;;204.33;192.03;;;15.50;99.90;;;;;;6155556;23;20433;-82
2021/08/18 05:27:18;;;;;;;195.17;183.57;;;15.50;99.90;;;;;;6165874;23;20489;-82
2021/08/18 05:29:46;;;;;;;188.93;177.80;;;15.60;99.90;;;;;;6155645;23;20489;-82
2021/08/18 05:32:13;;;;;;;190.93;179.10;;;15.60;99.90;;;;;;6155364;23;20485;-81
2021/08/18 05:34:40;;;;;;;184.33;173.07;;;15.70;99.90;;;;;;6165387;23;20484;-83
2021/08/18 05:37:11;;;;;;;179.17;168.20;;;15.70;99.90;;;;;;6165341;23;20441;-83
2021/08/18 05:39:37;;;;;;;175.07;164.30;;;15.80;99.90;;;;;;6163958;23;20480;-86
2021/08/18 05:42:06;;;;;;;170.53;160.20;;;15.80;99.90;;;;;;6165818;23;20453;-85
2021/08/18 05:44:33;;;;;;;163.20;153.37;;;15.80;99.90;;;;;;6155296;23;20436;-84
2021/08/18 05:47:01;;;;;;;165.13;155.03;;;15.90;99.90;;;;;;6155387;23;20399;-83
2021/08/18 05:49:28;;;;;;;153.83;144.37;;;16.00;99.90;;;;;;6155388;23;20398;-84
2021/08/18 05:51:55;;;;;;;147.30;138.43;;;16.00;99.90;;;;;;6165406;23;20405;-85
2021/08/18 05:54:22;;;;;;;148.20;138.97;;;16.00;99.90;;;;;;6154417;23;20433;-83
2021/08/18 05:56:52;;;;;;;145.13;136.87;;;16.00;99.90;;;;;;6154870;23;20452;-83
2021/08/18 05:59:19;;;;;;;144.17;135.90;;;16.20;99.90;;;;;;6154406;23;20437;-85
2021/08/18 06:01:45;;;;;;;133.67;126.07;;;16.30;99.90;;;;;;6155562;23;20402;-84
2021/08/18 06:04:15;;;;;;;125.63;118.40;;;16.20;99.90;;;;;;6165578;23;20413;-85
2021/08/18 06:06:42;;;;;;;125.13;118.03;;;16.30;99.90;;;;;;6155785;23;20406;-83
2021/08/18 06:09:09;;;;;;;114.87;108.17;;;16.40;99.90;;;;;;6154345;23;20406;-84
2021/08/18 06:11:40;;;;;;;108.10;101.97;;;16.50;99.90;;;;;;6155610;23;20454;-83
2021/08/18 06:14:07;;;;;;;101.17;95.40;;;16.40;99.90;;;;;;6155606;23;20433;-83
2021/08/18 06:16:38;;;;;;;104.60;98.37;;;16.60;99.90;;;;;;6155217;23;20953;-81
2021/08/18 06:19:05;;;;;;;98.03;92.20;;;16.50;99.90;;;;;;6155479;23;20446;-84
2021/08/18 06:21:37;;;;;;;90.63;85.67;;;16.60;99.90;;;;;;6155402;23;20485;-82
2021/08/18 06:24:11;;;;;;;89.53;84.33;;;16.60;99.90;;;;;;6163191;23;20909;-83
2021/08/18 06:26:38;;;;;;;92.17;86.77;;;16.70;99.90;;;;;;6164588;23;20448;-82
2021/08/18 06:29:05;;;;;;;80.40;75.43;;;16.80;99.90;;;;;;6166420;23;20406;-84
2021/08/18 06:31:33;;;;;;;75.57;71.03;;;16.80;99.90;;;;;;6167316;23;20505;-83
2021/08/18 06:34:00;;;;;;;72.53;68.13;;;16.90;99.90;;;;;;6157375;23;20732;-83
2021/08/18 06:36:27;;;;;;;62.00;58.00;;;17.00;99.90;;;;;;6157121;23;20425;-82
2021/08/18 06:38:55;;;;;;;56.73;52.83;;;17.10;98.80;;;;;;6156076;23;20409;-84
2021/08/18 06:41:22;;;;;;;51.43;47.33;;;17.10;97.80;;;;;;6157154;23;20401;-85
2021/08/18 06:43:49;;;;;;;49.00;45.40;;;17.10;97.00;;;;;;6157423;23;20401;-84
2021/08/18 06:46:16;;;;;;;49.50;46.00;;;17.10;97.30;;;;;;6156958;23;20731;-86
2021/08/18 06:48:45;;;;;;;47.67;44.17;;;17.20;97.30;;;;;;6167009;23;20889;-85
2021/08/18 06:51:12;;;;;;;52.03;48.63;;;17.20;97.10;;;;;;6166475;23;20405;-83
2021/08/18 06:53:39;;;;;;;49.57;45.67;;;17.30;97.40;;;;;;6155328;23;20484;-76
2021/08/18 06:56:14;;;;;;;47.67;44.07;;;17.20;96.40;;;;;;6156727;23;20409;-84
2021/08/18 06:58:42;;;;;;;43.13;39.47;;;17.20;95.60;;;;;;6167097;23;20792;-85
2021/08/18 07:01:12;;;;;;;38.47;35.07;;;17.30;95.90;;;;;;6166409;23;20414;-86
2021/08/18 07:03:48;;;;;;;37.10;34.23;;;17.10;94.70;;;;;;6166717;23;20417;-86
2021/08/18 07:06:18;;;;;;;35.80;32.70;;;17.20;95.30;;;;;;6157004;23;20402;-84
2021/08/18 07:09:00;;;;;;;43.10;39.70;;;17.20;95.30;;;;;;6163119;23;20416;-85
2021/08/18 07:11:34;;;;;;;42.30;39.23;;;17.30;96.00;;;;;;6165597;23;20406;-85
2021/08/18 07:14:06;;;;;;;38.20;35.40;;;17.30;95.10;;;;;;6155422;23;20433;-85
2021/08/18 07:16:36;;;;;;;38.90;35.90;;;17.30;95.00;;;;;;6164901;23;20444;-79
2021/08/18 07:19:07;;;;;;;30.97;28.57;;;17.40;94.80;;;;;;6155646;23;20404;-86
2021/08/18 07:21:34;;;;;;;36.80;33.93;;;17.40;94.00;;;;;;6165153;23;20434;-85
2021/08/18 07:24:05;;;;;;;30.13;27.63;;;17.50;94.10;;;;;;6163538;23;20480;-85
2021/08/18 07:26:33;;;;;;;34.33;31.57;;;17.50;94.10;;;;;;6164952;23;20473;-86
2021/08/18 07:29:12;;;;;;;28.20;25.70;;;17.60;94.10;;;;;;6156696;23;20498;-84
2021/08/18 07:31:43;;;;;;;32.50;29.13;;;17.60;93.40;;;;;;6156890;23;20496;-85
2021/08/18 07:34:25;;;;;;;;;;;;;;;;;;;;;
2021/08/18 07:37:12;;;;;;;38.07;34.97;;;17.40;94.10;;;;;;6155754;23;20500;-83
2021/08/18 07:39:39;;;;;;;36.13;33.33;;;17.40;94.90;;;;;;6165206;23;20407;-84
2021/08/18 07:42:07;;;;;;;40.13;37.03;;;17.30;94.00;;;;;;6156336;23;20410;-89
2021/08/18 07:44:34;;;;;;;33.90;31.43;;;17.30;94.10;;;;;;6156691;23;20783;-92
2021/08/18 07:47:01;;;;;;;29.77;27.40;;;17.50;93.50;;;;;;6156741;23;20886;-87
2021/08/18 07:49:28;;;;;;;33.50;31.30;;;17.40;93.80;;;;;;6156524;23;20775;-88
2021/08/18 07:52:13;;;;;;;35.73;32.97;;;17.40;94.00;;;;;;6166578;23;20407;-82
2021/08/18 07:54:40;;;;;;;32.23;29.73;;;17.50;94.10;;;;;;6164987;23;20445;-85
2021/08/18 07:57:11;;;;;;;27.47;25.17;;;17.70;93.70;;;;;;6166368;23;20438;-86
2021/08/18 07:59:41;;;;;;;22.47;20.37;;;17.70;92.70;;;;;;6166322;23;20414;-85
2021/08/18 08:02:11;;;;;;;26.20;23.90;;;17.80;90.80;;;;;;6155814;23;20488;-84
2021/08/18 08:04:40;;;;;;;23.37;21.20;;;17.90;91.60;;;;;;6165932;23;20628;-86
2021/08/18 08:07:07;;;;;;;16.53;14.73;;;18.10;90.90;;;;;;6156042;23;20952;-84
2021/08/18 08:09:34;;;;;;;16.50;14.40;;;18.20;88.60;;;;;;6155346;23;20550;-84
2021/08/18 08:12:05;;;;;;;17.13;14.37;;;18.30;89.50;;;;;;6156601;23;20492;-86
2021/08/18 08:14:33;;;;;;;15.80;13.80;;;18.30;88.30;;;;;;6155792;23;20762;-86
2021/08/18 08:17:00;;;;;;;11.87;10.67;;;18.40;84.60;;;;;;6156498;23;20406;-85
2021/08/18 08:19:29;;;;;;;13.30;11.10;;;18.30;84.70;;;;;;6166261;23;20405;-88
2021/08/18 08:21:58;;;;;;;16.50;12.50;;;18.20;85.40;;;;;;6156261;23;20433;-85
2021/08/18 08:24:25;;;;;;;14.97;13.60;;;18.10;87.80;;;;;;6164727;23;20406;-85
2021/08/18 08:26:52;;;;;;;17.80;14.40;;;17.90;88.90;;;;;;6156005;23;20461;-87
2021/08/18 08:29:18;;;;;;;26.80;24.80;;;17.50;90.70;;;;;;6166244;23;20485;-84
2021/08/18 08:31:57;;;;;;;41.63;39.23;;;17.20;93.10;;;;;;6156301;23;20472;-82
2021/08/18 08:34:27;;;;;;;58.40;54.83;;;17.10;97.30;;;;;;6166096;23;20434;-83
2021/08/18 08:36:55;;;;;;;67.80;64.20;;;16.80;99.90;;;;;;6165764;23;20414;-83
2021/08/18 08:39:27;;;;;;;77.93;73.93;;;17.10;99.90;;;;;;6155125;23;20457;-84
2021/08/18 08:41:54;;;;;;;74.70;71.00;;;17.20;99.90;;;;;;6166028;23;20433;-83
2021/08/18 08:44:26;;;;;;;76.67;72.57;;;17.40;99.90;;;;;;6165746;23;20457;-83
2021/08/18 08:46:55;;;;;;;67.90;64.70;;;17.40;99.90;;;;;;6156223;23;20460;-81
2021/08/18 08:49:24;;;;;;;57.30;54.70;;;17.50;99.90;;;;;;6166113;23;20437;-83
2021/08/18 08:51:53;;;;;;;65.00;62.13;;;17.40;98.00;;;;;;6156114;23;20398;-83
2021/08/18 08:54:21;;;;;;;52.37;49.87;;;17.50;99.20;;;;;;6164363;23;20520;-85
2021/08/18 08:56:48;;;;;;;55.07;52.67;;;17.50;97.50;;;;;;6155770;23;20405;-82
2021/08/18 08:59:15;;;;;;;55.77;53.37;;;17.50;98.50;;;;;;6166142;23;20700;-85
2021/08/18 09:02:03;;;;;;;66.00;63.10;;;17.70;98.90;;;;;;6166173;23;20416;-85
2021/08/18 09:04:31;;;;;;;50.43;48.33;;;18.00;97.60;;;;;;6156198;23;20398;-89
2021/08/18 09:07:09;;;;;;;43.57;41.67;;;18.00;94.30;;;;;;6165598;23;20761;-86
2021/08/18 09:09:37;;;;;;;28.80;27.50;;;18.10;94.30;;;;;;6164661;23;20434;-85
2021/08/18 09:12:06;;;;;;;30.90;29.50;;;18.30;92.50;;;;;;6156111;23;20399;-83
2021/08/18 09:14:33;;;;;;;23.80;22.50;;;18.30;92.40;;;;;;6155632;23;20469;-85
2021/08/18 09:17:22;;;;;;;23.90;22.03;;;18.10;91.30;;;;;;6165554;23;20432;-88
2021/08/18 09:19:58;;;;;;;26.23;24.90;;;17.90;91.80;;;;;;6165113;23;20417;-83
2021/08/18 09:22:25;;;;;;;34.43;32.90;;;17.70;92.70;;;;;;6164247;23;20445;-88
2021/08/18 09:25:20;;;;;;;25.73;24.43;;;17.70;93.50;;;;;;6155857;23;20485;-83
2021/08/18 09:27:49;;;;;;;19.30;18.30;;;17.80;92.10;;;;;;6155802;23;20402;-85
2021/08/18 09:30:22;;;;;;;11.50;10.70;;;17.80;90.70;;;;;;6155976;23;20465;-81
2021/08/18 09:32:51;;;;;;;9.70;9.00;;;17.80;85.60;;;;;;6155879;23;20428;-85
2021/08/18 09:35:37;;;;;;;12.53;11.70;;;17.70;85.50;;;;;;6165700;23;20921;-90
2021/08/18 09:38:13;;;;;;;18.20;17.20;;;17.60;89.40;;;;;;6164758;23;20800;-89
2021/08/18 09:40:43;;;;;;;14.80;13.90;;;17.50;90.70;;;;;;6166171;23;20476;-86
2021/08/18 09:43:14;;;;;;;20.10;19.10;;;17.30;89.40;;;;;;6155460;23;20457;-92
2021/08/18 09:45:42;;;;;;;23.13;22.03;;;17.10;90.50;;;;;;6165991;23;20414;-94
2021/08/18 09:48:17;;;;;;;32.97;31.40;;;16.90;92.60;;;;;;6166469;23;20438;-90
2021/08/18 09:50:50;;;;;;;40.00;38.23;;;16.90;93.60;;;;;;6166355;23;20725;-90
2021/08/18 09:53:19;;;;;;;42.37;40.57;;;17.00;93.90;;;;;;6165453;23;20441;-91
2021/08/18 09:55:59;;;;;;;43.97;42.00;;;17.10;93.90;;;;;;6169818;23;20434;-91
2021/08/18 09:58:28;;;;;;;48.10;46.00;;;17.10;93.50;;;;;;6163250;23;20476;-91
2021/08/18 10:00:57;;;;;;;56.83;54.27;;;17.20;93.60;;;;;;6155295;23;20735;-93
2021/08/18 10:03:27;;;;;;;39.80;37.90;;;17.50;94.10;;;;;;6170503;23;20461;-94
2021/08/18 10:05:55;;;;;;;26.20;25.00;;;17.30;93.20;;;;;;6160306;23;20406;-93
2021/08/18 10:08:25;;;;;;;45.63;43.50;;;17.20;91.50;;;;;;6163614;23;20413;-93
2021/08/18 10:10:53;;;;;;;47.13;45.13;;;17.40;93.20;;;;;;6169087;23;20492;-91
2021/08/18 10:13:22;;;;;;;24.97;23.67;;;17.70;92.70;;;;;;6172520;23;20402;-91
2021/08/18 10:15:51;;;;;;;17.50;16.50;;;17.90;88.80;;;;;;6175843;23;20430;-95
2021/08/18 10:18:35;;;;;;;13.00;12.23;;;18.20;85.40;;;;;;6178872;23;20425;-87
2021/08/18 10:21:06;;;;;;;4.67;4.13;;;18.50;83.40;;;;;;6164654;23;20437;-88
2021/08/18 10:23:55;;;;;;;6.30;5.80;;;18.20;71.00;;;;;;6148755;23;20412;-95
2021/08/18 10:26:50;;;;;;;5.53;5.03;;;18.70;76.40;;;;;;6166391;23;20941;-92
2021/08/18 10:29:30;;;;;;;5.87;4.90;;;18.70;75.70;;;;;;6138920;23;20444;-95
2021/08/18 10:32:03;;;;;;;5.57;4.40;;;18.40;74.90;;;;;;6174928;23;20438;-95
2021/08/18 10:34:36;;;;;;;4.90;3.90;;;18.30;76.90;;;;;;6162687;23;20433;-93
2021/08/18 10:37:08;;;;;;;4.60;3.20;;;18.10;70.20;;;;;;6162027;23;20406;-96
2021/08/18 10:39:40;;;;;;;4.60;4.10;;;18.20;72.80;;;;;;6167429;23;20417;-92
2021/08/18 10:42:25;;;;;;;4.83;3.27;;;18.20;74.80;;;;;;6169458;23;20409;-83
2021/08/18 10:45:00;;;;;;;6.43;5.27;;;18.00;69.50;;;;;;6168870;23;20402;-87
2021/08/18 10:47:28;;;;;;;7.17;6.47;;;18.00;74.00;;;;;;6168261;23;20402;-89
2021/08/18 10:49:58;;;;;;;7.53;6.90;;;18.00;75.10;;;;;;6160247;23;20394;-89
2021/08/18 10:52:56;;;;;;;10.40;9.50;;;18.30;75.90;;;;;;6156395;23;20402;-84
2021/08/18 10:55:32;;;;;;;12.63;11.63;;;18.40;74.60;;;;;;6155755;23;20495;-82
2021/08/18 10:58:01;;;;;;;14.13;11.43;;;18.50;76.80;;;;;;6167074;23;20405;-83
2021/08/18 11:01:03;;;;;;;9.30;6.63;;;18.80;75.60;;;;;;6166819;23;20970;-81
2021/08/18 11:03:33;;;;;;;8.33;6.30;;;19.10;71.60;;;;;;6166990;23;20408;-83
2021/08/18 11:06:01;;;;;;;5.90;4.90;;;19.30;71.20;;;;;;6167231;23;20402;-84
2021/08/18 11:08:37;;;;;;;5.47;4.43;;;19.60;68.60;;;;;;6155723;23;20413;-82
2021/08/18 11:11:20;;;;;;;6.90;5.10;;;19.80;68.20;;;;;;6166722;23;20881;-84
2021/08/18 11:13:50;;;;;;;6.93;4.40;;;20.20;62.00;;;;;;6166740;23;20749;-84
2021/08/18 11:16:19;;;;;;;10.13;3.77;;;20.40;58.20;;;;;;6166878;23;20398;-89
2021/08/18 11:22:29;;;;;;;6.27;3.80;;;21.50;54.60;;;;;;6065253;23;20511;-83
2021/08/18 11:25:13;;;;;;;4.73;3.10;;;22.10;50.50;;;;;;6138658;23;20433;-85
2021/08/18 11:27:41;;;;;;;6.00;3.90;;;22.50;46.70;;;;;;6157009;23;20437;-85
2021/08/18 11:30:11;;;;;;;5.57;3.47;;;22.40;46.60;;;;;;6166369;23;20417;-85
2021/08/18 11:33:05;;;;;;;11.80;4.20;;;22.40;42.70;;;;;;6156568;23;20401;-85
2021/08/18 11:35:32;;;;;;;7.03;4.60;;;22.50;43.20;;;;;;6156475;23;20465;-84
2021/08/18 11:38:04;;;;;;;9.50;5.77;;;22.40;42.50;;;;;;6165504;23;20464;-83
2021/08/18 11:40:31;;;;;;;9.17;5.80;;;22.30;43.60;;;;;;6156888;23;20425;-84
2021/08/18 11:42:59;;;;;;;7.10;4.57;;;22.70;44.00;;;;;;6166432;23;20417;-84
2021/08/18 11:45:26;;;;;;;8.40;5.20;;;22.80;43.90;;;;;;6166336;23;20402;-83
2021/08/18 11:48:05;;;;;;;10.73;5.30;;;22.80;39.60;;;;;;6166804;23;20433;-83
2021/08/18 11:50:32;;;;;;;8.33;5.30;;;23.00;42.10;;;;;;6156809;23;20410;-84
2021/08/18 11:53:02;;;;;;;9.03;6.20;;;23.00;38.20;;;;;;6165047;23;20402;-83
2021/08/18 11:55:32;;;;;;;9.40;5.50;;;22.90;38.70;;;;;;6166525;23;20445;-83
2021/08/18 11:57:59;;;;;;;9.10;6.73;;;22.60;41.30;;;;;;6166260;23;20941;-83
2021/08/18 12:00:26;;;;;;;12.90;7.03;;;22.20;41.10;;;;;;6156707;23;20436;-83
2021/08/18 12:02:55;;;;;;;13.80;8.27;;;22.00;42.00;;;;;;6156594;23;20736;-82
2021/08/18 12:05:31;;;;;;;12.00;8.07;;;22.10;42.20;;;;;;6156715;23;20429;-82
2021/08/18 12:08:09;;;;;;;11.17;8.73;;;21.80;42.60;;;;;;6164772;23;20405;-82
2021/08/18 12:10:42;;;;;;;11.93;8.20;;;21.40;44.40;;;;;;6156706;23;20434;-82
2021/08/18 12:13:12;;;;;;;7.70;5.90;;;21.40;47.90;;;;;;6166337;23;20456;-81
2021/08/18 12:15:45;;;;;;;9.57;6.73;;;21.60;44.50;;;;;;6156082;23;20446;-82
2021/08/18 12:18:31;;;;;;;11.47;7.97;;;21.10;47.50;;;;;;6156488;23;20452;-82
2021/08/18 12:21:16;;;;;;;13.53;6.80;;;21.10;49.10;;;;;;6156250;23;20477;-83
2021/08/18 12:23:46;;;;;;;10.30;6.90;;;21.00;48.70;;;;;;6164693;23;20409;-82
2021/08/18 12:26:30;;;;;;;10.50;6.90;;;20.70;50.70;;;;;;6165726;23;20790;-85
2021/08/18 12:28:58;;;;;;;13.50;7.43;;;20.80;49.40;;;;;;6154693;23;20420;-85
2021/08/18 12:31:26;;;;;;;11.67;6.97;;;20.90;48.60;;;;;;6166145;23;20713;-84
2021/08/18 12:34:06;;;;;;;11.07;6.77;;;21.30;47.30;;;;;;6165990;23;20410;-84
2021/08/18 12:36:33;;;;;;;10.47;7.90;;;21.40;45.70;;;;;;6166147;23;20935;-85
2021/08/18 12:39:00;;;;;;;15.67;7.60;;;21.20;46.90;;;;;;6155174;23;20792;-85